sensor_id;sensor_type;location;lat;lon;timestamp;pressure;altitude;pressure_sealevel;temperature
24714;BMP280;12820;51.580;5.010;2024-01-15T00:04:41;100510.25;;;4.96
24714;BMP280;12820;51.580;5.010;2024-01-15T00:09:43;100502.78;;;4.92
24714;BMP280;12820;51.580;5.010;2024-01-15T00:14:46;100487.81;;;4.86
24714;BMP280;12820;51.580;5.010;2024-01-15T00:19:48;100489.44;;;4.81
24714;BMP280;12820;51.580;5.010;2024-01-15T00:24:51;100486.13;;;4.73
24714;BMP280;12820;51.580;5.010;2024-01-15T00:29:53;100473.63;;;4.66
24714;BMP280;12820;51.580;5.010;2024-01-15T00:34:56;100467.81;;;4.60
24714;BMP280;12820;51.580;5.010;2024-01-15T00:39:59;100461.16;;;4.53
24714;BMP280;12820;51.580;5.010;2024-01-15T00:45:20;100464.41;;;4.46
24714;BMP280;12820;51.580;5.010;2024-01-15T00:50:25;100454.47;;;4.40
24714;BMP280;12820;51.580;5.010;2024-01-15T00:55:28;100451.13;;;4.37
24714;BMP280;12820;51.580;5.010;2024-01-15T01:00:30;100436.16;;;4.32
24714;BMP280;12820;51.580;5.010;2024-01-15T01:05:36;100442.81;;;4.33
24714;BMP280;12820;51.580;5.010;2024-01-15T01:10:38;100446.16;;;4.35
24714;BMP280;12820;51.580;5.010;2024-01-15T01:15:40;100437.03;;;4.36
24714;BMP280;12820;51.580;5.010;2024-01-15T01:20:42;100430.38;;;4.33
24714;BMP280;12820;51.580;5.010;2024-01-15T01:25:46;100419.63;;;4.31
24714;BMP280;12820;51.580;5.010;2024-01-15T01:30:48;100431.19;;;4.26
24714;BMP280;12820;51.580;5.010;2024-01-15T01:35:50;100431.97;;;4.23
24714;BMP280;12820;51.580;5.010;2024-01-15T01:40:52;100424.53;;;4.20
24714;BMP280;12820;51.580;5.010;2024-01-15T01:45:56;100426.16;;;4.18
24714;BMP280;12820;51.580;5.010;2024-01-15T01:51:00;100427.00;;;4.15
24714;BMP280;12820;51.580;5.010;2024-01-15T01:56:04;100426.16;;;4.16
24714;BMP280;12820;51.580;5.010;2024-01-15T02:01:06;100421.19;;;4.15
24714;BMP280;12820;51.580;5.010;2024-01-15T02:06:09;100427.00;;;4.12
24714;BMP280;12820;51.580;5.010;2024-01-15T02:11:11;100426.13;;;4.09
24714;BMP280;12820;51.580;5.010;2024-01-15T02:16:13;100433.53;;;4.03
24714;BMP280;12820;51.580;5.010;2024-01-15T02:21:16;100409.50;;;3.99
24714;BMP280;12820;51.580;5.010;2024-01-15T02:26:18;100424.41;;;3.96
24714;BMP280;12820;51.580;5.010;2024-01-15T02:31:20;100417.75;;;3.92
24714;BMP280;12820;51.580;5.010;2024-01-15T02:36:22;100418.56;;;3.89
24714;BMP280;12820;51.580;5.010;2024-01-15T02:41:25;100434.31;;;3.88
24714;BMP280;12820;51.580;5.010;2024-01-15T02:46:27;100441.75;;;3.90
24714;BMP280;12820;51.580;5.010;2024-01-15T02:51:29;100431.84;;;3.93
24714;BMP280;12820;51.580;5.010;2024-01-15T02:56:31;100423.56;;;3.96
24714;BMP280;12820;51.580;5.010;2024-01-15T03:01:33;100403.69;;;3.96
24714;BMP280;12820;51.580;5.010;2024-01-15T03:06:35;100408.63;;;3.94
24714;BMP280;12820;51.580;5.010;2024-01-15T03:11:39;100416.09;;;3.93
24714;BMP280;12820;51.580;5.010;2024-01-15T03:16:41;100422.69;;;3.89
24714;BMP280;12820;51.580;5.010;2024-01-15T03:21:43;100416.03;;;3.86
24714;BMP280;12820;51.580;5.010;2024-01-15T03:26:46;100423.53;;;3.87
24714;BMP280;12820;51.580;5.010;2024-01-15T03:31:48;100422.69;;;3.89
24714;BMP280;12820;51.580;5.010;2024-01-15T03:36:50;100416.91;;;3.90
24714;BMP280;12820;51.580;5.010;2024-01-15T03:41:53;100428.53;;;3.94
24714;BMP280;12820;51.580;5.010;2024-01-15T03:46:55;100417.81;;;3.98
24714;BMP280;12820;51.580;5.010;2024-01-15T03:51:57;100403.72;;;4.02
24714;BMP280;12820;51.580;5.010;2024-01-15T03:57:00;100401.28;;;4.07
24714;BMP280;12820;51.580;5.010;2024-01-15T04:02:02;100402.94;;;4.10
24714;BMP280;12820;51.580;5.010;2024-01-15T04:07:04;100397.94;;;4.13
24714;BMP280;12820;51.580;5.010;2024-01-15T04:12:06;100412.91;;;4.16
24714;BMP280;12820;51.580;5.010;2024-01-15T04:17:09;100392.19;;;4.15
24714;BMP280;12820;51.580;5.010;2024-01-15T04:22:12;100398.81;;;4.18
24714;BMP280;12820;51.580;5.010;2024-01-15T04:27:14;100376.44;;;4.12
24714;BMP280;12820;51.580;5.010;2024-01-15T04:32:17;100378.91;;;4.10
24714;BMP280;12820;51.580;5.010;2024-01-15T04:37:19;100379.75;;;4.12
24714;BMP280;12820;51.580;5.010;2024-01-15T04:42:21;100367.28;;;4.11
24714;BMP280;12820;51.580;5.010;2024-01-15T04:47:23;100363.16;;;4.13
24714;BMP280;12820;51.580;5.010;2024-01-15T04:52:25;100362.31;;;4.11
24714;BMP280;12820;51.580;5.010;2024-01-15T04:57:27;100356.50;;;4.09
24714;BMP280;12820;51.580;5.010;2024-01-15T05:02:30;100353.19;;;4.07
24714;BMP280;12820;51.580;5.010;2024-01-15T05:07:32;100350.69;;;4.04
24714;BMP280;12820;51.580;5.010;2024-01-15T05:12:34;100353.16;;;4.04
24714;BMP280;12820;51.580;5.010;2024-01-15T05:17:37;100348.19;;;4.04
24714;BMP280;12820;51.580;5.010;2024-01-15T05:22:39;100353.19;;;4.06
24714;BMP280;12820;51.580;5.010;2024-01-15T05:27:41;100343.25;;;4.07
24714;BMP280;12820;51.580;5.010;2024-01-15T05:32:43;100327.50;;;4.05
24714;BMP280;12820;51.580;5.010;2024-01-15T05:37:46;100317.53;;;4.01
24714;BMP280;12820;51.580;5.010;2024-01-15T05:42:48;100335.75;;;4.00
24714;BMP280;12820;51.580;5.010;2024-01-15T05:47:50;100337.41;;;3.99
24714;BMP280;12820;51.580;5.010;2024-01-15T05:52:54;100320.84;;;4.00
24714;BMP280;12820;51.580;5.010;2024-01-15T05:57:56;100333.28;;;3.97
24714;BMP280;12820;51.580;5.010;2024-01-15T06:02:58;100332.44;;;3.93
24714;BMP280;12820;51.580;5.010;2024-01-15T06:08:01;100330.75;;;3.92
24714;BMP280;12820;51.580;5.010;2024-01-15T06:13:03;100331.59;;;3.91
24714;BMP280;12820;51.580;5.010;2024-01-15T06:18:05;100322.47;;;3.90
24714;BMP280;12820;51.580;5.010;2024-01-15T06:23:08;100327.41;;;3.89
24714;BMP280;12820;51.580;5.010;2024-01-15T06:28:10;100313.34;;;3.87
24714;BMP280;12820;51.580;5.010;2024-01-15T06:33:12;100327.44;;;3.90
24714;BMP280;12820;51.580;5.010;2024-01-15T06:38:15;100320.78;;;3.87
24714;BMP280;12820;51.580;5.010;2024-01-15T06:43:17;100315.00;;;3.88
24714;BMP280;12820;51.580;5.010;2024-01-15T06:48:19;100315.00;;;3.88
24714;BMP280;12820;51.580;5.010;2024-01-15T06:53:22;100318.31;;;3.87
24714;BMP280;12820;51.580;5.010;2024-01-15T06:58:24;100317.47;;;3.83
24714;BMP280;12820;51.580;5.010;2024-01-15T07:03:26;100322.44;;;3.83
24714;BMP280;12820;51.580;5.010;2024-01-15T07:08:28;100330.72;;;3.82
24714;BMP280;12820;51.580;5.010;2024-01-15T07:13:31;100336.50;;;3.81
24714;BMP280;12820;51.580;5.010;2024-01-15T07:18:33;100339.81;;;3.82
24714;BMP280;12820;51.580;5.010;2024-01-15T07:23:36;100334.03;;;3.81
24714;BMP280;12820;51.580;5.010;2024-01-15T07:28:38;100331.50;;;3.80
24714;BMP280;12820;51.580;5.010;2024-01-15T07:33:41;100332.38;;;3.82
24714;BMP280;12820;51.580;5.010;2024-01-15T07:38:43;100340.66;;;3.82
24714;BMP280;12820;51.580;5.010;2024-01-15T07:43:45;100349.78;;;3.83
24714;BMP280;12820;51.580;5.010;2024-01-15T07:48:48;100357.22;;;3.83
24714;BMP280;12820;51.580;5.010;2024-01-15T07:53:55;100355.56;;;3.81
24714;BMP280;12820;51.580;5.010;2024-01-15T07:58:58;100347.28;;;3.82
24714;BMP280;12820;51.580;5.010;2024-01-15T08:04:00;100352.25;;;3.82
24714;BMP280;12820;51.580;5.010;2024-01-15T08:09:03;100346.47;;;3.83
24714;BMP280;12820;51.580;5.010;2024-01-15T08:14:06;100352.25;;;3.82
24714;BMP280;12820;51.580;5.010;2024-01-15T08:19:08;100350.56;;;3.78
24714;BMP280;12820;51.580;5.010;2024-01-15T08:24:14;100358.00;;;3.75
24714;BMP280;12820;51.580;5.010;2024-01-15T08:29:16;100353.03;;;3.75
24714;BMP280;12820;51.580;5.010;2024-01-15T08:34:21;100359.66;;;3.76
24714;BMP280;12820;51.580;5.010;2024-01-15T08:39:23;100366.28;;;3.74
24714;BMP280;12820;51.580;5.010;2024-01-15T08:44:26;100355.53;;;3.73
24714;BMP280;12820;51.580;5.010;2024-01-15T08:49:28;100367.13;;;3.77
24714;BMP280;12820;51.580;5.010;2024-01-15T08:54:30;100353.03;;;3.76
24714;BMP280;12820;51.580;5.010;2024-01-15T08:59:33;100374.59;;;3.79
24714;BMP280;12820;51.580;5.010;2024-01-15T09:04:35;100343.97;;;3.81
24714;BMP280;12820;51.580;5.010;2024-01-15T09:09:38;100339.00;;;3.83
24714;BMP280;12820;51.580;5.010;2024-01-15T09:14:40;100353.91;;;3.83
24714;BMP280;12820;51.580;5.010;2024-01-15T09:19:45;100344.81;;;3.88
24714;BMP280;12820;51.580;5.010;2024-01-15T09:24:48;100343.16;;;3.89
24714;BMP280;12820;51.580;5.010;2024-01-15T09:29:50;100344.00;;;3.91
24714;BMP280;12820;51.580;5.010;2024-01-15T09:34:54;100346.50;;;3.89
24714;BMP280;12820;51.580;5.010;2024-01-15T09:39:57;100358.94;;;3.93
24714;BMP280;12820;51.580;5.010;2024-01-15T09:45:06;100378.84;;;3.97
24714;BMP280;12820;51.580;5.010;2024-01-15T09:50:09;100377.22;;;4.08
24714;BMP280;12820;51.580;5.010;2024-01-15T09:55:15;100379.75;;;4.17
24714;BMP280;12820;51.580;5.010;2024-01-15T10:00:18;100387.25;;;4.28
24714;BMP280;12820;51.580;5.010;2024-01-15T10:11:03;100384.81;;;4.40
24714;BMP280;12820;51.580;5.010;2024-01-15T10:16:06;100376.50;;;4.41
24714;BMP280;12820;51.580;5.010;2024-01-15T10:21:08;100378.19;;;4.45
24714;BMP280;12820;51.580;5.010;2024-01-15T10:26:10;100384.88;;;4.62
24714;BMP280;12820;51.580;5.010;2024-01-15T10:31:20;100378.25;;;4.68
24714;BMP280;12820;51.580;5.010;2024-01-15T10:42:05;100369.13;;;4.72
24714;BMP280;12820;51.580;5.010;2024-01-15T10:47:09;100376.59;;;4.67
24714;BMP280;12820;51.580;5.010;2024-01-15T10:52:11;100385.72;;;4.71
24714;BMP280;12820;51.580;5.010;2024-01-15T10:57:16;100387.41;;;4.94
24714;BMP280;12820;51.580;5.010;2024-01-15T11:02:20;100387.41;;;5.09
24714;BMP280;12820;51.580;5.010;2024-01-15T11:07:23;100391.56;;;5.18
24714;BMP280;12820;51.580;5.010;2024-01-15T11:12:31;100397.38;;;5.06
24714;BMP280;12820;51.580;5.010;2024-01-15T11:17:59;100387.41;;;4.94
24714;BMP280;12820;51.580;5.010;2024-01-15T11:23:07;100404.00;;;4.94
24714;BMP280;12820;51.580;5.010;2024-01-15T11:28:46;100393.22;;;4.86
24714;BMP280;12820;51.580;5.010;2024-01-15T11:33:49;100405.66;;;4.83
24714;BMP280;12820;51.580;5.010;2024-01-15T11:38:52;100404.00;;;4.85
24714;BMP280;12820;51.580;5.010;2024-01-15T11:43:54;100416.44;;;4.94
24714;BMP280;12820;51.580;5.010;2024-01-15T11:49:03;100402.38;;;4.93
24714;BMP280;12820;51.580;5.010;2024-01-15T11:54:10;100404.00;;;4.91
24714;BMP280;12820;51.580;5.010;2024-01-15T11:59:14;100400.69;;;4.99
24714;BMP280;12820;51.580;5.010;2024-01-15T12:04:16;100412.34;;;5.14
24714;BMP280;12820;51.580;5.010;2024-01-15T12:09:21;100406.53;;;5.11
24714;BMP280;12820;51.580;5.010;2024-01-15T12:14:24;100407.34;;;5.07
24714;BMP280;12820;51.580;5.010;2024-01-15T12:19:26;100403.19;;;5.06
24714;BMP280;12820;51.580;5.010;2024-01-15T12:24:28;100399.03;;;5.08
24714;BMP280;12820;51.580;5.010;2024-01-15T12:41:29;100427.28;;;5.44
24714;BMP280;12820;51.580;5.010;2024-01-15T12:46:31;100446.38;;;5.29
24714;BMP280;12820;51.580;5.010;2024-01-15T12:51:36;100442.22;;;5.28
24714;BMP280;12820;51.580;5.010;2024-01-15T13:03:17;100463.00;;;5.38
24714;BMP280;12820;51.580;5.010;2024-01-15T13:08:26;100459.66;;;5.28
24714;BMP280;12820;51.580;5.010;2024-01-15T13:13:30;100463.81;;;5.24
24714;BMP280;12820;51.580;5.010;2024-01-15T13:18:33;100468.81;;;5.26
24714;BMP280;12820;51.580;5.010;2024-01-15T13:23:35;100470.44;;;5.98
24714;BMP280;12820;51.580;5.010;2024-01-15T13:28:39;100455.03;;;8.10
24714;BMP280;12820;51.580;5.010;2024-01-15T13:33:41;100451.63;;;9.39
24714;BMP280;12820;51.580;5.010;2024-01-15T13:38:46;100434.78;;;11.15
24714;BMP280;12820;51.580;5.010;2024-01-15T13:43:49;100434.63;;;12.50
24714;BMP280;12820;51.580;5.010;2024-01-15T13:48:55;100442.00;;;11.30
24714;BMP280;12820;51.580;5.010;2024-01-15T13:53:57;100457.13;;;9.61
24714;BMP280;12820;51.580;5.010;2024-01-15T13:59:00;100455.22;;;8.65
24714;BMP280;12820;51.580;5.010;2024-01-15T14:04:03;100480.19;;;7.94
24714;BMP280;12820;51.580;5.010;2024-01-15T14:09:08;100472.38;;;8.92
24714;BMP280;12820;51.580;5.010;2024-01-15T14:14:12;100488.75;;;9.17
24714;BMP280;12820;51.580;5.010;2024-01-15T14:19:14;100510.03;;;9.45
24714;BMP280;12820;51.580;5.010;2024-01-15T14:24:17;100508.72;;;9.23
24714;BMP280;12820;51.580;5.010;2024-01-15T14:29:20;100513.09;;;8.41
24714;BMP280;12820;51.580;5.010;2024-01-15T14:34:25;100528.75;;;7.71
24714;BMP280;12820;51.580;5.010;2024-01-15T14:39:33;100523.25;;;7.18
24714;BMP280;12820;51.580;5.010;2024-01-15T14:44:39;100538.41;;;6.83
24714;BMP280;12820;51.580;5.010;2024-01-15T14:49:42;100557.63;;;6.67
24714;BMP280;12820;51.580;5.010;2024-01-15T14:54:46;100557.63;;;6.67
24714;BMP280;12820;51.580;5.010;2024-01-15T14:59:50;100561.84;;;6.59
24714;BMP280;12820;51.580;5.010;2024-01-15T15:04:52;100565.19;;;6.43
24714;BMP280;12820;51.580;5.010;2024-01-15T15:09:54;100565.22;;;6.24
24714;BMP280;12820;51.580;5.010;2024-01-15T15:14:56;100576.91;;;6.02
24714;BMP280;12820;51.580;5.010;2024-01-15T15:20:10;100576.88;;;5.77
24714;BMP280;12820;51.580;5.010;2024-01-15T15:25:12;100581.81;;;5.63
24714;BMP280;12820;51.580;5.010;2024-01-15T15:30:14;100590.94;;;5.49
24714;BMP280;12820;51.580;5.010;2024-01-15T15:35:17;100589.22;;;5.38
24714;BMP280;12820;51.580;5.010;2024-01-15T15:40:19;100586.69;;;5.20
24714;BMP280;12820;51.580;5.010;2024-01-15T15:45:22;100605.72;;;5.05
24714;BMP280;12820;51.580;5.010;2024-01-15T15:50:25;100612.28;;;4.89
24714;BMP280;12820;51.580;5.010;2024-01-15T15:55:30;100617.19;;;4.76
24714;BMP280;12820;51.580;5.010;2024-01-15T16:00:34;100617.97;;;4.64
24714;BMP280;12820;51.580;5.010;2024-01-15T16:05:46;100646.94;;;4.54
24714;BMP280;12820;51.580;5.010;2024-01-15T16:10:55;100659.34;;;4.52
24714;BMP280;12820;51.580;5.010;2024-01-15T16:16:04;100648.50;;;4.43
24714;BMP280;12820;51.580;5.010;2024-01-15T16:21:26;100646.88;;;4.43
24714;BMP280;12820;51.580;5.010;2024-01-15T16:26:48;100658.59;;;4.62
24714;BMP280;12820;51.580;5.010;2024-01-15T16:31:58;100678.53;;;4.66
24714;BMP280;12820;51.580;5.010;2024-01-15T16:37:00;100691.84;;;4.68
24714;BMP280;12820;51.580;5.010;2024-01-15T16:42:03;100682.94;;;5.05
24714;BMP280;12820;51.580;5.010;2024-01-15T16:47:05;100680.41;;;4.96
24714;BMP280;12820;51.580;5.010;2024-01-15T16:52:09;100696.88;;;4.80
24714;BMP280;12820;51.580;5.010;2024-01-15T16:57:12;100693.47;;;4.66
24714;BMP280;12820;51.580;5.010;2024-01-15T17:02:17;100695.06;;;4.54
24714;BMP280;12820;51.580;5.010;2024-01-15T17:07:27;100701.63;;;4.45
24714;BMP280;12820;51.580;5.010;2024-01-15T17:12:29;100709.81;;;4.35
24714;BMP280;12820;51.580;5.010;2024-01-15T17:17:32;100703.94;;;4.27
24714;BMP280;12820;51.580;5.010;2024-01-15T17:22:35;100715.47;;;4.20
24714;BMP280;12820;51.580;5.010;2024-01-15T17:27:39;100721.19;;;4.13
24714;BMP280;12820;51.580;5.010;2024-01-15T17:32:41;100721.13;;;4.04
24714;BMP280;12820;51.580;5.010;2024-01-15T17:37:43;100735.94;;;3.95
24714;BMP280;12820;51.580;5.010;2024-01-15T17:42:45;100745.00;;;3.88
24714;BMP280;12820;51.580;5.010;2024-01-15T17:47:49;100749.91;;;3.85
24714;BMP280;12820;51.580;5.010;2024-01-15T17:52:54;100763.97;;;3.81
24714;BMP280;12820;51.580;5.010;2024-01-15T17:58:00;100764.78;;;3.79
24714;BMP280;12820;51.580;5.010;2024-01-15T18:03:03;100769.69;;;3.74
24714;BMP280;12820;51.580;5.010;2024-01-15T18:08:05;100779.56;;;3.69
24714;BMP280;12820;51.580;5.010;2024-01-15T18:13:07;100787.78;;;3.66
24714;BMP280;12820;51.580;5.010;2024-01-15T18:18:10;100800.19;;;3.63
24714;BMP280;12820;51.580;5.010;2024-01-15T18:23:12;100807.63;;;3.62
24714;BMP280;12820;51.580;5.010;2024-01-15T18:28:14;100792.72;;;3.62
24714;BMP280;12820;51.580;5.010;2024-01-15T18:33:23;100806.00;;;3.65
24714;BMP280;12820;51.580;5.010;2024-01-15T18:38:31;100811.88;;;3.69
24714;BMP280;12820;51.580;5.010;2024-01-15T18:43:35;100821.00;;;3.70
24714;BMP280;12820;51.580;5.010;2024-01-15T18:48:42;100829.28;;;3.72
24714;BMP280;12820;51.580;5.010;2024-01-15T18:53:46;100831.00;;;3.74
24714;BMP280;12820;51.580;5.010;2024-01-15T18:58:56;100850.94;;;3.80
24714;BMP280;12820;51.580;5.010;2024-01-15T19:03:59;100861.75;;;3.85
24714;BMP280;12820;51.580;5.010;2024-01-15T19:09:02;100844.34;;;3.85
24714;BMP280;12820;51.580;5.010;2024-01-15T19:14:06;100842.72;;;3.85
24714;BMP280;12820;51.580;5.010;2024-01-15T19:19:08;100853.50;;;3.86
24714;BMP280;12820;51.580;5.010;2024-01-15T19:24:11;100855.16;;;3.87
24714;BMP280;12820;51.580;5.010;2024-01-15T19:29:13;100856.84;;;3.88
24714;BMP280;12820;51.580;5.010;2024-01-15T19:34:15;100856.84;;;3.88
24714;BMP280;12820;51.580;5.010;2024-01-15T19:39:21;100856.78;;;3.85
24714;BMP280;12820;51.580;5.010;2024-01-15T19:44:25;100865.13;;;3.87
24714;BMP280;12820;51.580;5.010;2024-01-15T19:49:28;100867.56;;;3.84
24714;BMP280;12820;51.580;5.010;2024-01-15T19:54:30;100874.19;;;3.83
24714;BMP280;12820;51.580;5.010;2024-01-15T19:59:33;100879.13;;;3.82
24714;BMP280;12820;51.580;5.010;2024-01-15T20:04:36;100874.94;;;3.78
24714;BMP280;12820;51.580;5.010;2024-01-15T20:09:38;100875.75;;;3.77
24714;BMP280;12820;51.580;5.010;2024-01-15T20:14:40;100883.19;;;3.74
24714;BMP280;12820;51.580;5.010;2024-01-15T20:19:44;100887.25;;;3.69
24714;BMP280;12820;51.580;5.010;2024-01-15T20:24:47;100888.84;;;3.66
24714;BMP280;12820;51.580;5.010;2024-01-15T20:29:49;100907.06;;;3.65
24714;BMP280;12820;51.580;5.010;2024-01-15T20:34:51;100907.00;;;3.60
24714;BMP280;12820;51.580;5.010;2024-01-15T20:39:54;100917.78;;;3.62
24714;BMP280;12820;51.580;5.010;2024-01-15T20:44:56;100915.28;;;3.61
24714;BMP280;12820;51.580;5.010;2024-01-15T20:49:58;100936.06;;;3.64
24714;BMP280;12820;51.580;5.010;2024-01-15T20:55:01;100929.44;;;3.66
24714;BMP280;12820;51.580;5.010;2024-01-15T21:00:03;100927.81;;;3.68
24714;BMP280;12820;51.580;5.010;2024-01-15T21:05:33;100930.34;;;3.70
24714;BMP280;12820;51.580;5.010;2024-01-15T21:10:36;100938.66;;;3.73
24714;BMP280;12820;51.580;5.010;2024-01-15T21:15:38;100934.53;;;3.75
24714;BMP280;12820;51.580;5.010;2024-01-15T21:20:43;100942.84;;;3.77
24714;BMP280;12820;51.580;5.010;2024-01-15T21:25:46;100942.84;;;3.77
24714;BMP280;12820;51.580;5.010;2024-01-15T21:30:48;100942.88;;;3.80
24714;BMP280;12820;51.580;5.010;2024-01-15T21:35:51;100961.16;;;3.82
24714;BMP280;12820;51.580;5.010;2024-01-15T21:40:53;100964.44;;;3.81
24714;BMP280;12820;51.580;5.010;2024-01-15T21:45:56;100968.63;;;3.82
24714;BMP280;12820;51.580;5.010;2024-01-15T21:50:59;100969.50;;;3.84
24714;BMP280;12820;51.580;5.010;2024-01-15T21:56:02;100967.00;;;3.84
24714;BMP280;12820;51.580;5.010;2024-01-15T22:01:04;100964.50;;;3.84
24714;BMP280;12820;51.580;5.010;2024-01-15T22:06:11;100964.50;;;3.85
24714;BMP280;12820;51.580;5.010;2024-01-15T22:11:13;100964.50;;;3.84
24714;BMP280;12820;51.580;5.010;2024-01-15T22:16:16;100961.19;;;3.85
24714;BMP280;12820;51.580;5.010;2024-01-15T22:21:18;100964.44;;;3.81
24714;BMP280;12820;51.580;5.010;2024-01-15T22:37:45;100981.03;;;3.82
24714;BMP280;12820;51.580;5.010;2024-01-15T22:42:47;100981.00;;;3.80
24714;BMP280;12820;51.580;5.010;2024-01-15T22:47:49;100983.50;;;3.79
24714;BMP280;12820;51.580;5.010;2024-01-15T22:52:52;100996.75;;;3.79
24714;BMP280;12820;51.580;5.010;2024-01-15T22:57:54;100994.19;;;3.75
24714;BMP280;12820;51.580;5.010;2024-01-15T23:02:59;101012.41;;;3.74
24714;BMP280;12820;51.580;5.010;2024-01-15T23:08:03;101023.09;;;3.70
24714;BMP280;12820;51.580;5.010;2024-01-15T23:13:06;101019.03;;;3.73
24714;BMP280;12820;51.580;5.010;2024-01-15T23:18:08;101017.31;;;3.71
24714;BMP280;12820;51.580;5.010;2024-01-15T23:23:13;101026.41;;;3.71
24714;BMP280;12820;51.580;5.010;2024-01-15T23:28:15;101024.78;;;3.70
24714;BMP280;12820;51.580;5.010;2024-01-15T23:33:17;101018.13;;;3.69
24714;BMP280;12820;51.580;5.010;2024-01-15T23:38:20;101031.38;;;3.69
24714;BMP280;12820;51.580;5.010;2024-01-15T23:43:22;101025.53;;;3.67
24714;BMP280;12820;51.580;5.010;2024-01-15T23:48:24;101035.44;;;3.66
24714;BMP280;12820;51.580;5.010;2024-01-15T23:53:27;101024.66;;;3.64
24714;BMP280;12820;51.580;5.010;2024-01-15T23:58:29;101033.72;;;3.62
